createdAt,value
2023-01-28T00:01:19.505Z,-1.04
2023-01-28T00:03:18.068Z,-1.03
2023-01-28T00:05:16.878Z,-1.03
2023-01-28T00:07:16.732Z,-1.01
2023-01-28T00:09:15.443Z,-1.04
2023-01-28T00:11:14.953Z,-1.03
2023-01-28T00:13:14.942Z,-1.01
2023-01-28T00:15:13.513Z,-1.03
2023-01-28T00:17:12.094Z,-1.04
2023-01-28T00:19:10.757Z,-1.07
2023-01-28T00:21:12.493Z,-1.09
2023-01-28T00:23:12.085Z,-1.07
2023-01-28T00:25:10.711Z,-1.01
2023-01-28T00:27:09.368Z,-0.95
2023-01-28T00:29:07.868Z,-0.89
2023-01-28T00:31:09.990Z,-0.87
2023-01-28T00:33:08.212Z,-0.83
2023-01-28T00:35:07.296Z,-0.88
2023-01-28T00:37:07.027Z,-0.94
2023-01-28T00:39:07.836Z,-1.01
2023-01-28T00:41:10.553Z,-1.07
2023-01-28T00:43:09.276Z,-1.08
2023-01-28T00:45:09.027Z,-1.07
2023-01-28T00:47:07.189Z,-1.05
2023-01-28T00:49:05.379Z,-1.03
2023-01-28T00:51:06.214Z,-1.02
2023-01-28T00:53:04.416Z,-1.01
2023-01-28T00:55:04.041Z,-1.01
2023-01-28T00:57:02.266Z,-1.00
2023-01-28T00:59:00.616Z,-1.03
2023-01-28T01:00:59.130Z,-1.05
2023-01-28T01:02:57.416Z,-1.05
2023-01-28T01:05:01.426Z,-1.07
2023-01-28T01:06:59.698Z,-1.09
2023-01-28T01:08:58.043Z,-1.12
2023-01-28T01:11:02.005Z,-1.08
2023-01-28T01:13:02.589Z,-1.09
2023-01-28T01:15:00.961Z,-1.06
2023-01-28T01:16:59.212Z,-1.04
2023-01-28T01:18:59.371Z,-0.98
2023-01-28T01:20:59.100Z,-1.00
2023-01-28T01:22:58.039Z,-1.01
2023-01-28T01:24:58.142Z,-0.97
2023-01-28T01:26:57.802Z,-0.94
2023-01-28T01:28:56.280Z,-0.94
2023-01-28T01:31:01.721Z,-0.90
2023-01-28T01:33:00.215Z,-0.87
2023-01-28T01:34:58.311Z,-0.77
2023-01-28T01:36:57.075Z,-0.71
2023-01-28T01:38:56.324Z,-0.71
2023-01-28T01:40:58.351Z,-0.69
2023-01-28T01:42:58.014Z,-0.69
2023-01-28T01:44:59.525Z,-0.73
2023-01-28T01:46:58.033Z,-0.87
2023-01-28T01:48:59.238Z,-0.91
2023-01-28T01:51:01.146Z,-0.93
2023-01-28T01:53:05.837Z,-0.91
2023-01-28T01:55:11.029Z,-0.81
2023-01-28T01:57:14.463Z,-0.81
2023-01-28T01:59:19.190Z,-0.62
2023-01-28T02:01:19.021Z,-0.62
2023-01-28T02:03:22.018Z,-0.67
2023-01-28T02:05:22.464Z,-0.80
2023-01-28T02:07:21.529Z,-0.92
2023-01-28T02:09:25.342Z,-0.97
2023-01-28T02:11:26.643Z,-1.04
2023-01-28T02:13:30.267Z,-1.06
2023-01-28T02:15:32.512Z,-1.05
2023-01-28T02:17:31.647Z,-1.06
2023-01-28T02:19:36.604Z,-1.14
2023-01-28T02:22:07.061Z,-1.15
2023-01-28T02:24:34.121Z,-1.16
2023-01-28T02:27:08.068Z,-1.15
2023-01-28T02:29:16.817Z,-1.18
2023-01-28T02:31:20.275Z,-1.21
2023-01-28T02:33:23.592Z,-1.22
2023-01-28T02:35:32.852Z,-1.19
2023-01-28T02:37:39.486Z,-1.14
2023-01-28T02:39:42.207Z,-1.12
2023-01-28T02:41:46.412Z,-1.13
2023-01-28T02:43:47.457Z,-1.09
2023-01-28T02:46:04.387Z,-1.09
2023-01-28T02:48:02.743Z,-1.10
2023-01-28T02:50:03.538Z,-1.12
2023-01-28T02:52:16.426Z,-1.15
2023-01-28T02:54:19.135Z,-1.18
2023-01-28T02:56:29.430Z,-1.18
2023-01-28T02:58:38.796Z,-1.15
2023-01-28T03:00:46.426Z,-1.22
2023-01-28T03:02:51.051Z,-1.29
2023-01-28T03:04:56.009Z,-1.25
2023-01-28T03:06:59.631Z,-1.26
2023-01-28T03:09:20.178Z,-1.23
2023-01-28T03:11:36.294Z,-1.06
2023-01-28T03:13:52.203Z,-1.10
2023-01-28T03:16:08.932Z,-1.12
2023-01-28T03:18:30.774Z,-1.10
2023-01-28T03:20:54.153Z,-1.14
2023-01-28T03:23:15.870Z,-1.18
2023-01-28T03:25:34.336Z,-1.25
2023-01-28T03:27:59.000Z,-1.32
2023-01-28T03:30:18.485Z,-1.32
2023-01-28T03:32:34.864Z,-1.33
2023-01-28T03:34:52.104Z,-1.36
2023-01-28T03:36:53.535Z,-1.30
2023-01-28T03:39:15.726Z,-1.29
2023-01-28T03:41:23.262Z,-1.27
2023-01-28T03:43:22.093Z,-1.32
2023-01-28T03:45:21.449Z,-1.35
2023-01-28T03:47:21.804Z,-1.16
2023-01-28T03:49:21.000Z,-1.14
2023-01-28T03:51:20.991Z,-1.15
2023-01-28T03:53:20.511Z,-1.17
2023-01-28T03:55:25.839Z,-1.22
2023-01-28T03:57:27.516Z,-1.24
2023-01-28T03:59:25.792Z,-1.28
2023-01-28T04:01:24.485Z,-1.33
2023-01-28T04:03:23.241Z,-1.37
2023-01-28T04:05:30.306Z,-1.38
2023-01-28T04:07:31.894Z,-1.42
2023-01-28T04:09:39.986Z,-1.33
2023-01-28T04:12:13.701Z,-1.32
2023-01-28T04:14:17.974Z,-1.33
2023-01-28T04:16:22.127Z,-1.37
2023-01-28T04:18:27.341Z,-1.38
2023-01-28T04:20:28.177Z,-1.28
2023-01-28T04:22:40.211Z,-1.20
2023-01-28T04:24:41.124Z,-1.28
2023-01-28T04:26:39.883Z,-1.27
2023-01-28T04:28:38.300Z,-1.29
2023-01-28T04:30:37.091Z,-1.12
2023-01-28T04:32:44.840Z,-1.18
2023-01-28T04:35:03.895Z,-1.26
2023-01-28T04:37:22.747Z,-1.30
2023-01-28T04:39:49.847Z,-1.46
2023-01-28T04:42:05.306Z,-1.49
2023-01-28T04:44:26.344Z,-1.57
2023-01-28T04:46:38.148Z,-1.52
2023-01-28T04:48:52.827Z,-1.53
2023-01-28T04:51:09.678Z,-1.58
2023-01-28T04:53:38.377Z,-1.45
2023-01-28T04:55:56.606Z,-1.41
2023-01-28T04:57:55.166Z,-1.34
2023-01-28T04:59:53.370Z,-1.18
2023-01-28T05:01:51.702Z,-1.30
2023-01-28T05:03:50.828Z,-1.40
2023-01-28T05:05:57.901Z,-1.44
2023-01-28T05:08:11.010Z,-1.42
2023-01-28T05:10:10.317Z,-1.43
2023-01-28T05:12:10.057Z,-1.52
2023-01-28T05:14:10.005Z,-1.49
2023-01-28T05:16:22.177Z,-1.50
2023-01-28T05:18:20.749Z,-1.42
2023-01-28T05:20:31.005Z,-1.34
2023-01-28T05:22:29.464Z,-1.15
2023-01-28T05:24:42.002Z,-1.16
2023-01-28T05:26:40.269Z,-1.27
2023-01-28T05:28:40.124Z,-1.27
2023-01-28T05:30:40.031Z,-1.25
2023-01-28T05:32:38.276Z,-1.23
2023-01-28T05:34:36.844Z,-1.33
2023-01-28T05:36:42.055Z,-1.28
2023-01-28T05:38:56.322Z,-1.12
2023-01-28T05:40:54.797Z,-1.06
2023-01-28T05:42:53.235Z,-1.00
2023-01-28T05:45:10.473Z,-1.02
2023-01-28T05:47:12.207Z,-0.98
2023-01-28T05:49:26.768Z,-1.00
2023-01-28T05:51:42.685Z,-1.10
2023-01-28T05:53:42.384Z,-1.08
2023-01-28T05:55:40.615Z,-0.98
2023-01-28T05:57:38.924Z,-1.10
2023-01-28T05:59:39.532Z,-1.15
2023-01-28T06:01:39.306Z,-1.23
2023-01-28T06:03:37.418Z,-1.28
2023-01-28T06:05:36.215Z,-1.37
2023-01-28T06:07:34.617Z,-1.40
2023-01-28T06:09:33.077Z,-1.39
2023-01-28T06:11:31.667Z,-1.33
2023-01-28T06:13:34.184Z,-1.31
2023-01-28T06:16:08.745Z,-1.34
2023-01-28T06:18:20.310Z,-1.32
2023-01-28T06:20:20.164Z,-1.17
2023-01-28T06:22:20.105Z,-1.18
2023-01-28T06:24:18.689Z,-1.24
2023-01-28T06:26:17.145Z,-1.28
2023-01-28T06:28:17.429Z,-1.30
2023-01-28T06:30:16.120Z,-1.21
2023-01-28T06:32:14.420Z,-1.21
2023-01-28T06:34:14.330Z,-1.30
2023-01-28T06:36:12.683Z,-1.25
2023-01-28T06:38:10.995Z,-1.26
2023-01-28T06:40:10.928Z,-1.27
2023-01-28T06:42:09.138Z,-1.26
2023-01-28T06:44:07.921Z,-1.28
2023-01-28T06:46:06.706Z,-1.28
2023-01-28T06:48:07.895Z,-1.27
2023-01-28T06:50:09.261Z,-1.28
2023-01-28T06:52:07.456Z,-1.22
2023-01-28T06:54:06.126Z,-1.23
2023-01-28T06:56:04.740Z,-1.24
2023-01-28T06:58:03.027Z,-1.22
2023-01-28T07:00:01.917Z,-1.23
2023-01-28T07:02:00.513Z,-1.20
2023-01-28T07:03:59.317Z,-1.22
2023-01-28T07:05:59.039Z,-1.19
2023-01-28T07:07:57.390Z,-1.18
2023-01-28T07:09:55.589Z,-1.09
2023-01-28T07:11:53.870Z,-1.09
2023-01-28T07:13:52.141Z,-1.14
2023-01-28T07:15:50.742Z,-1.08
2023-01-28T07:17:49.251Z,-1.07
2023-01-28T07:19:47.592Z,-1.01
2023-01-28T07:21:50.222Z,-1.01
2023-01-28T07:23:48.621Z,-0.97
2023-01-28T07:25:46.772Z,-0.95
2023-01-28T07:27:50.158Z,-0.97
2023-01-28T07:29:48.418Z,-0.97
2023-01-28T07:31:46.885Z,-0.98
2023-01-28T07:33:45.301Z,-0.93
2023-01-28T07:35:43.382Z,-0.94
2023-01-28T07:37:42.995Z,-0.94
2023-01-28T07:39:41.310Z,-0.94
2023-01-28T07:41:40.025Z,-0.87
2023-01-28T07:43:56.939Z,-0.79
2023-01-28T07:45:55.074Z,-0.76
2023-01-28T07:47:57.286Z,-0.66
2023-01-28T07:49:55.446Z,-0.58
2023-01-28T07:51:53.688Z,-0.56
2023-01-28T07:53:53.242Z,-0.55
2023-01-28T07:55:51.382Z,-0.52
2023-01-28T07:57:51.516Z,-0.59
2023-01-28T07:59:49.862Z,-0.64
2023-01-28T08:01:48.131Z,-0.70
2023-01-28T08:03:46.516Z,-0.60
2023-01-28T08:05:47.480Z,-0.53
2023-01-28T08:07:46.584Z,-0.47
2023-01-28T08:09:46.315Z,-0.42
2023-01-28T08:11:44.619Z,-0.33
2023-01-28T08:13:42.785Z,-0.42
2023-01-28T08:15:41.632Z,-0.38
2023-01-28T08:17:40.029Z,-0.42
2023-01-28T08:19:38.402Z,-0.41
2023-01-28T08:21:36.719Z,-0.42
2023-01-28T08:23:35.765Z,-0.36
2023-01-28T08:25:37.295Z,-0.31
2023-01-28T08:27:35.710Z,-0.27
2023-01-28T08:29:34.306Z,-0.31
2023-01-28T08:31:32.496Z,-0.22
2023-01-28T08:33:31.164Z,-0.09
2023-01-28T08:35:30.356Z,0.08
2023-01-28T08:37:28.857Z,0.18
2023-01-28T08:39:27.192Z,0.54
2023-01-28T08:41:26.708Z,0.77
2023-01-28T08:43:25.279Z,1.02
2023-01-28T08:45:27.789Z,1.02
2023-01-28T08:47:26.432Z,1.16
2023-01-28T08:49:24.839Z,1.12
2023-01-28T08:51:23.090Z,1.24
2023-01-28T08:53:22.111Z,1.41
2023-01-28T08:55:20.373Z,1.33
2023-01-28T08:57:21.760Z,1.46
2023-01-28T08:59:20.244Z,1.51
2023-01-28T09:01:18.934Z,1.30
2023-01-28T09:03:18.229Z,1.29
2023-01-28T09:05:16.313Z,1.22
2023-01-28T09:07:14.580Z,1.41
2023-01-28T09:09:12.852Z,1.48
2023-01-28T09:11:11.342Z,1.51
2023-01-28T09:13:13.045Z,1.36
2023-01-28T09:15:11.945Z,1.32
2023-01-28T09:17:10.157Z,1.21
2023-01-28T09:19:08.304Z,1.17
2023-01-28T09:21:07.745Z,0.94
2023-01-28T09:23:06.620Z,0.89
2023-01-28T09:25:05.151Z,0.72
2023-01-28T09:27:03.184Z,0.65
2023-01-28T09:29:02.892Z,0.55
2023-01-28T09:31:05.385Z,0.67
2023-01-28T09:33:03.779Z,0.65
2023-01-28T09:35:02.333Z,0.58
2023-01-28T09:37:00.462Z,0.75
2023-01-28T09:38:58.757Z,0.76
2023-01-28T09:40:57.388Z,0.79
2023-01-28T09:43:09.209Z,0.84
2023-01-28T09:45:16.813Z,0.98
2023-01-28T09:47:22.001Z,0.80
2023-01-28T09:49:30.634Z,0.79
2023-01-28T09:51:35.504Z,0.76
2023-01-28T09:53:37.751Z,0.68
2023-01-28T09:55:39.995Z,0.58
2023-01-28T09:57:42.284Z,0.59
2023-01-28T09:59:40.773Z,0.58
2023-01-28T10:01:46.555Z,0.61
2023-01-28T10:03:56.115Z,0.61
2023-01-28T10:06:05.896Z,0.68
2023-01-28T10:08:26.601Z,0.91
2023-01-28T10:10:30.813Z,0.80
2023-01-28T10:12:59.642Z,0.59
2023-01-28T10:15:18.824Z,0.50
2023-01-28T10:17:27.887Z,0.59
2023-01-28T10:19:30.941Z,0.65
2023-01-28T10:21:34.201Z,0.62
2023-01-28T10:23:42.718Z,0.45
2023-01-28T10:25:45.169Z,0.66
2023-01-28T10:27:44.631Z,0.76
2023-01-28T10:29:46.130Z,0.64
2023-01-28T10:31:53.565Z,0.64
2023-01-28T10:33:53.277Z,0.67
2023-01-28T10:35:51.992Z,0.71
2023-01-28T10:37:50.724Z,0.75
2023-01-28T10:39:49.236Z,0.90
2023-01-28T10:41:57.395Z,1.03
2023-01-28T10:43:58.425Z,1.10
2023-01-28T10:46:04.319Z,1.16
2023-01-28T10:48:07.465Z,1.33
2023-01-28T10:50:08.999Z,1.43
2023-01-28T10:52:13.167Z,1.39
2023-01-28T10:54:21.220Z,1.54
2023-01-28T10:56:26.402Z,1.60
2023-01-28T10:58:27.097Z,1.60
2023-01-28T11:00:28.810Z,1.64
2023-01-28T11:02:33.403Z,1.64
2023-01-28T11:04:32.240Z,1.49
2023-01-28T11:06:32.021Z,1.63
2023-01-28T11:08:31.681Z,1.48
2023-01-28T11:10:33.971Z,1.56
2023-01-28T11:12:32.492Z,1.67
2023-01-28T11:14:30.883Z,1.65
2023-01-28T11:16:30.068Z,1.77
2023-01-28T11:18:31.126Z,1.88
2023-01-28T11:20:32.692Z,2.05
2023-01-28T11:22:37.278Z,2.08
2023-01-28T11:24:37.256Z,2.08
2023-01-28T11:26:37.961Z,1.99
2023-01-28T11:28:41.926Z,1.97
2023-01-28T11:30:41.963Z,2.02
2023-01-28T11:32:40.331Z,2.09
2023-01-28T11:34:49.212Z,2.01
2023-01-28T11:36:55.129Z,2.22
2023-01-28T11:38:56.761Z,2.33
2023-01-28T11:40:57.012Z,2.38
2023-01-28T11:42:59.261Z,2.31
2023-01-28T11:44:57.696Z,2.39
2023-01-28T11:47:13.799Z,2.47
2023-01-28T11:49:22.031Z,2.33
2023-01-28T11:51:31.949Z,2.18
2023-01-28T11:53:47.511Z,2.13
2023-01-28T11:56:03.299Z,2.18
2023-01-28T11:58:13.664Z,2.40
2023-01-28T12:00:31.871Z,2.50
2023-01-28T12:02:45.843Z,2.67
2023-01-28T12:05:01.305Z,2.44
2023-01-28T12:07:21.690Z,2.41
2023-01-28T12:09:29.338Z,2.48
2023-01-28T12:11:56.146Z,2.13
2023-01-28T12:14:04.861Z,2.04
2023-01-28T12:16:42.927Z,2.03
2023-01-28T12:19:09.224Z,1.92
2023-01-28T12:21:10.729Z,2.04
2023-01-28T12:23:26.155Z,2.00
2023-01-28T12:25:39.541Z,1.84
2023-01-28T12:27:49.030Z,1.81
2023-01-28T12:29:59.967Z,2.03
2023-01-28T12:32:15.365Z,2.15
2023-01-28T12:34:35.500Z,2.22
2023-01-28T12:36:48.966Z,2.07
2023-01-28T12:38:57.802Z,2.11
2023-01-28T12:41:02.458Z,2.11
2023-01-28T12:43:06.604Z,1.98
2023-01-28T12:45:16.529Z,1.86
2023-01-28T12:47:21.536Z,1.82
2023-01-28T12:49:25.500Z,1.73
2023-01-28T12:51:28.932Z,1.90
2023-01-28T12:53:33.100Z,1.78
2023-01-28T12:55:41.168Z,1.84
2023-01-28T12:57:39.681Z,1.91
2023-01-28T12:59:47.375Z,1.80
2023-01-28T13:01:52.219Z,1.83
2023-01-28T13:03:55.810Z,1.83
2023-01-28T13:06:00.178Z,1.84
2023-01-28T13:08:02.520Z,1.91
2023-01-28T13:10:05.532Z,1.84
2023-01-28T13:12:07.072Z,1.92
2023-01-28T13:14:06.946Z,1.88
2023-01-28T13:16:09.507Z,1.95
2023-01-28T13:18:07.957Z,2.06
2023-01-28T13:20:17.100Z,1.97
2023-01-28T13:22:28.990Z,1.81
2023-01-28T13:24:36.607Z,1.84
2023-01-28T13:26:44.120Z,1.86
2023-01-28T13:28:42.386Z,1.49
2023-01-28T13:30:50.428Z,1.54
2023-01-28T13:32:57.679Z,1.43
2023-01-28T13:34:59.620Z,1.42
2023-01-28T13:37:00.192Z,1.47
2023-01-28T13:39:03.974Z,1.55
2023-01-28T13:41:06.432Z,1.73
2023-01-28T13:43:06.917Z,1.65
2023-01-28T13:45:26.499Z,1.66
2023-01-28T13:47:31.112Z,1.55
2023-01-28T13:49:36.021Z,1.43
2023-01-28T13:51:36.800Z,1.51
2023-01-28T13:53:45.414Z,1.48
2023-01-28T13:55:46.973Z,1.34
2023-01-28T13:58:05.202Z,1.20
2023-01-28T14:00:15.582Z,1.21
2023-01-28T14:02:53.496Z,1.13
2023-01-28T14:05:07.771Z,1.14
2023-01-28T14:07:31.786Z,1.10
2023-01-28T14:09:54.224Z,0.85
2023-01-28T14:12:21.258Z,0.85
2023-01-28T14:14:48.902Z,0.66
2023-01-28T14:16:53.452Z,0.72
2023-01-28T14:18:52.981Z,0.65
2023-01-28T14:20:55.289Z,0.63
2023-01-28T14:23:00.501Z,0.51
2023-01-28T14:25:02.217Z,0.54
2023-01-28T14:27:08.594Z,0.61
2023-01-28T14:29:19.042Z,0.56
2023-01-28T14:31:26.126Z,0.36
2023-01-28T14:33:25.085Z,0.35
2023-01-28T14:35:29.824Z,0.27
2023-01-28T14:37:32.923Z,0.15
2023-01-28T14:39:34.299Z,0.12
2023-01-28T14:41:32.779Z,0.09
2023-01-28T14:43:32.438Z,0.13
2023-01-28T14:45:58.799Z,0.12
2023-01-28T14:48:15.195Z,0.15
2023-01-28T14:50:29.403Z,0.17
2023-01-28T14:53:08.948Z,0.22
2023-01-28T14:55:20.156Z,0.15
2023-01-28T14:57:36.858Z,0.12
2023-01-28T14:59:40.990Z,0.15
2023-01-28T15:01:45.765Z,0.17
2023-01-28T15:03:46.873Z,0.06
2023-01-28T15:05:45.612Z,-0.12
2023-01-28T15:07:45.843Z,-0.17
2023-01-28T15:09:45.615Z,-0.25
2023-01-28T15:11:47.206Z,-0.30
2023-01-28T15:13:48.900Z,-0.31
2023-01-28T15:15:50.988Z,-0.26
2023-01-28T15:17:50.180Z,-0.35
2023-01-28T15:19:48.959Z,-0.37
2023-01-28T15:21:47.475Z,-0.42
2023-01-28T15:23:45.921Z,-0.48
2023-01-28T15:25:45.854Z,-0.48
2023-01-28T15:27:44.357Z,-0.50
2023-01-28T15:29:42.577Z,-0.49
2023-01-28T15:31:50.022Z,-0.44
2023-01-28T15:33:58.049Z,-0.39
2023-01-28T15:35:59.430Z,-0.35
2023-01-28T15:37:58.107Z,-0.31
2023-01-28T15:40:05.926Z,-0.06
2023-01-28T15:42:08.600Z,-0.01
2023-01-28T15:44:07.011Z,-0.01
2023-01-28T15:46:13.084Z,-0.07
2023-01-28T15:48:13.663Z,-0.22
2023-01-28T15:50:20.445Z,-0.36
2023-01-28T15:52:19.440Z,-0.37
2023-01-28T15:54:18.210Z,-0.42
2023-01-28T15:56:17.579Z,-0.46
2023-01-28T15:58:22.367Z,-0.52
2023-01-28T16:00:21.585Z,-0.46
2023-01-28T16:02:21.783Z,-0.52
2023-01-28T16:04:25.295Z,-0.45
2023-01-28T16:06:24.000Z,-0.50
2023-01-28T16:08:28.767Z,-0.35
2023-01-28T16:10:30.457Z,-0.29
2023-01-28T16:12:29.560Z,-0.24
2023-01-28T16:14:32.676Z,-0.10
2023-01-28T16:16:34.405Z,-0.08
2023-01-28T16:18:41.417Z,-0.22
2023-01-28T16:20:39.726Z,-0.23
2023-01-28T16:22:40.056Z,-0.21
2023-01-28T16:24:38.329Z,-0.31
2023-01-28T16:26:37.668Z,-0.33
2023-01-28T16:28:35.994Z,-0.42
2023-01-28T16:30:35.879Z,-0.50
2023-01-28T16:32:37.285Z,-0.52
2023-01-28T16:34:35.448Z,-0.36
2023-01-28T16:36:33.778Z,-0.30
2023-01-28T16:38:32.260Z,-0.37
2023-01-28T16:40:32.327Z,-0.44
2023-01-28T16:42:32.287Z,-0.48
2023-01-28T16:44:30.436Z,-0.37
2023-01-28T16:46:30.212Z,-0.36
2023-01-28T16:48:30.525Z,-0.43
2023-01-28T16:50:28.724Z,-0.41
2023-01-28T16:52:27.097Z,-0.36
2023-01-28T16:54:27.579Z,-0.47
2023-01-28T16:56:45.212Z,-0.55
2023-01-28T16:58:46.698Z,-0.60
2023-01-28T17:00:45.233Z,-0.66
2023-01-28T17:02:44.844Z,-0.73
2023-01-28T17:04:43.294Z,-0.72
2023-01-28T17:06:43.452Z,-0.68
2023-01-28T17:08:41.813Z,-0.64
2023-01-28T17:10:40.155Z,-0.52
2023-01-28T17:12:38.459Z,-0.53
2023-01-28T17:14:36.637Z,-0.53
2023-01-28T17:16:34.989Z,-0.59
2023-01-28T17:18:34.474Z,-0.66
2023-01-28T17:20:37.347Z,-0.70
2023-01-28T17:22:35.631Z,-0.69
2023-01-28T17:24:33.887Z,-0.82
2023-01-28T17:26:34.013Z,-0.70
2023-01-28T17:28:32.391Z,-0.69
2023-01-28T17:30:30.472Z,-0.70
2023-01-28T17:32:28.810Z,-0.64
2023-01-28T17:34:28.643Z,-0.68
2023-01-28T17:36:28.185Z,-0.66
2023-01-28T17:38:26.648Z,-0.69
2023-01-28T17:40:24.839Z,-0.76
2023-01-28T17:42:23.243Z,-0.83
2023-01-28T17:44:22.059Z,-0.75
2023-01-28T17:46:20.297Z,-0.72
2023-01-28T17:48:18.603Z,-0.71
2023-01-28T17:50:18.361Z,-0.71
2023-01-28T17:52:16.556Z,-0.82
2023-01-28T17:54:15.886Z,-0.84
2023-01-28T17:56:18.385Z,-0.77
2023-01-28T17:58:16.676Z,-0.87
2023-01-28T18:00:16.287Z,-0.92
2023-01-28T18:02:15.107Z,-1.04
2023-01-28T18:04:13.523Z,-1.10
2023-01-28T18:06:13.245Z,-1.16
2023-01-28T18:08:11.544Z,-1.12
2023-01-28T18:10:10.910Z,-1.14
2023-01-28T18:12:11.753Z,-1.17
2023-01-28T18:14:09.947Z,-1.13
2023-01-28T18:16:10.156Z,-1.13
2023-01-28T18:18:08.636Z,-1.11
2023-01-28T18:20:07.910Z,-1.06
2023-01-28T18:22:07.451Z,-0.93
2023-01-28T18:24:07.129Z,-0.90
2023-01-28T18:26:07.371Z,-0.85
2023-01-28T18:28:08.460Z,-0.89
2023-01-28T18:30:07.480Z,-0.84
2023-01-28T18:32:06.445Z,-0.86
2023-01-28T18:34:04.804Z,-0.87
2023-01-28T18:36:03.021Z,-0.89
2023-01-28T18:38:02.799Z,-0.95
2023-01-28T18:40:01.034Z,-0.96
2023-01-28T18:42:00.097Z,-1.03
2023-01-28T18:43:58.374Z,-1.10
2023-01-28T18:45:56.727Z,-1.13
2023-01-28T18:47:55.012Z,-1.18
2023-01-28T18:49:53.188Z,-1.07
2023-01-28T18:51:51.609Z,-1.11
2023-01-28T18:53:51.429Z,-1.15
2023-01-28T18:55:50.064Z,-1.19
2023-01-28T18:57:48.478Z,-1.24
2023-01-28T18:59:46.662Z,-0.93
2023-01-28T19:01:47.739Z,-0.88
2023-01-28T19:03:45.984Z,-0.89
2023-01-28T19:05:44.259Z,-0.73
2023-01-28T19:07:42.699Z,-0.61
2023-01-28T19:09:43.943Z,-0.74
2023-01-28T19:11:43.060Z,-0.87
2023-01-28T19:13:41.217Z,-0.94
2023-01-28T19:15:39.422Z,-0.91
2023-01-28T19:17:38.675Z,-0.97
2023-01-28T19:19:37.007Z,-0.95
2023-01-28T19:21:35.232Z,-0.97
2023-01-28T19:23:48.880Z,-0.86
2023-01-28T19:25:49.141Z,-0.69
2023-01-28T19:27:47.325Z,-0.60
2023-01-28T19:29:45.625Z,-0.51
2023-01-28T19:31:44.437Z,-0.52
2023-01-28T19:33:42.759Z,-0.57
2023-01-28T19:35:40.965Z,-0.58
2023-01-28T19:37:39.107Z,-0.71
2023-01-28T19:39:37.547Z,-0.79
2023-01-28T19:41:37.454Z,-0.90
2023-01-28T19:43:36.113Z,-0.98
2023-01-28T19:45:34.616Z,-1.04
2023-01-28T19:47:33.032Z,-0.98
2023-01-28T19:49:31.685Z,-1.05
2023-01-28T19:51:29.934Z,-0.98
2023-01-28T19:53:28.099Z,-0.71
2023-01-28T19:55:26.449Z,-0.65
2023-01-28T19:57:26.202Z,-0.67
2023-01-28T19:59:24.451Z,-0.52
2023-01-28T20:01:26.157Z,-0.64
2023-01-28T20:03:26.134Z,-0.76
2023-01-28T20:05:24.381Z,-0.83
2023-01-28T20:07:22.699Z,-0.69
2023-01-28T20:09:21.198Z,-0.74
2023-01-28T20:11:19.577Z,-0.75
2023-01-28T20:13:19.192Z,-0.74
2023-01-28T20:15:17.893Z,-0.78
2023-01-28T20:17:16.290Z,-0.82
2023-01-28T20:19:16.727Z,-0.92
2023-01-28T20:21:14.867Z,-0.91
2023-01-28T20:23:13.098Z,-0.77
2023-01-28T20:25:11.708Z,-0.72
2023-01-28T20:27:09.839Z,-0.85
2023-01-28T20:29:11.417Z,-0.97
2023-01-28T20:31:12.003Z,-1.06
2023-01-28T20:33:10.374Z,-1.08
2023-01-28T20:35:09.588Z,-1.00
2023-01-28T20:37:10.141Z,-0.99
2023-01-28T20:39:08.316Z,-0.89
2023-01-28T20:41:08.031Z,-0.81
2023-01-28T20:43:06.151Z,-0.69
2023-01-28T20:45:06.511Z,-0.71
2023-01-28T20:47:06.227Z,-0.77
2023-01-28T20:49:06.586Z,-0.84
2023-01-28T20:51:08.972Z,-0.79
2023-01-28T20:53:07.337Z,-0.86
2023-01-28T20:55:06.156Z,-0.78
2023-01-28T20:57:04.386Z,-0.84
2023-01-28T20:59:04.116Z,-0.91
2023-01-28T21:01:04.220Z,-0.91
2023-01-28T21:03:02.622Z,-1.05
2023-01-28T21:05:00.692Z,-1.02
2023-01-28T21:06:58.985Z,-0.94
2023-01-28T21:08:58.092Z,-1.02
2023-01-28T21:10:56.376Z,-1.04
2023-01-28T21:12:55.215Z,-1.04
2023-01-28T21:14:53.265Z,-1.04
2023-01-28T21:16:53.669Z,-1.05
2023-01-28T21:18:52.405Z,-1.05
2023-01-28T21:20:51.561Z,-0.93
2023-01-28T21:22:52.020Z,-0.60
2023-01-28T21:24:51.340Z,-0.65
2023-01-28T21:26:49.623Z,-0.61
2023-01-28T21:28:47.786Z,-0.66
2023-01-28T21:30:46.439Z,-0.64
2023-01-28T21:32:46.332Z,-0.59
2023-01-28T21:34:44.551Z,-0.55
2023-01-28T21:36:43.052Z,-0.69
2023-01-28T21:38:42.003Z,-0.70
2023-01-28T21:40:40.173Z,-0.73
2023-01-28T21:42:38.394Z,-0.91
2023-01-28T21:44:36.771Z,-0.92
2023-01-28T21:46:36.006Z,-0.83
2023-01-28T21:48:35.656Z,-0.90
2023-01-28T21:50:54.355Z,-0.91
2023-01-28T21:52:52.877Z,-0.96
2023-01-28T21:54:51.018Z,-0.86
2023-01-28T21:56:50.714Z,-0.86
2023-01-28T21:59:06.504Z,-0.99
2023-01-28T22:01:09.781Z,-0.96
2023-01-28T22:03:08.017Z,-0.94
2023-01-28T22:05:08.572Z,-0.88
2023-01-28T22:07:08.945Z,-0.75
2023-01-28T22:09:11.722Z,-0.75
2023-01-28T22:11:10.605Z,-0.73
2023-01-28T22:13:08.870Z,-0.66
2023-01-28T22:15:08.208Z,-0.80
2023-01-28T22:17:09.313Z,-0.86
2023-01-28T22:19:07.902Z,-0.99
2023-01-28T22:21:09.457Z,-0.89
2023-01-28T22:23:07.710Z,-0.83
2023-01-28T22:25:06.146Z,-0.92
2023-01-28T22:27:04.394Z,-0.98
2023-01-28T22:29:03.324Z,-0.93
2023-01-28T22:31:07.402Z,-0.88
2023-01-28T22:33:05.773Z,-1.00
2023-01-28T22:35:04.830Z,-1.04
2023-01-28T22:37:04.641Z,-0.92
2023-01-28T22:39:07.739Z,-0.89
2023-01-28T22:41:06.657Z,-1.01
2023-01-28T22:43:05.166Z,-1.08
2023-01-28T22:45:03.541Z,-1.16
2023-01-28T22:47:01.631Z,-1.24
2023-01-28T22:49:00.069Z,-1.31
2023-01-28T22:51:03.270Z,-1.33
2023-01-28T22:53:04.148Z,-1.30
2023-01-28T22:55:02.355Z,-1.25
2023-01-28T22:57:00.511Z,-1.19
2023-01-28T22:59:00.131Z,-1.24
2023-01-28T23:00:58.567Z,-1.22
2023-01-28T23:02:56.800Z,-1.26
2023-01-28T23:04:55.073Z,-1.22
2023-01-28T23:06:53.247Z,-1.26
2023-01-28T23:08:52.890Z,-1.32
2023-01-28T23:10:51.282Z,-1.34
2023-01-28T23:12:54.615Z,-1.36
2023-01-28T23:15:10.230Z,-1.35
2023-01-28T23:17:24.212Z,-1.35
2023-01-28T23:19:39.988Z,-1.34
2023-01-28T23:22:04.165Z,-1.30
2023-01-28T23:24:23.065Z,-1.25
2023-01-28T23:26:21.339Z,-1.24
2023-01-28T23:28:19.452Z,-1.25
2023-01-28T23:30:19.996Z,-1.30
2023-01-28T23:32:18.239Z,-1.26
2023-01-28T23:34:18.340Z,-1.27
2023-01-28T23:36:16.644Z,-1.27
2023-01-28T23:38:14.908Z,-1.29
2023-01-28T23:40:16.299Z,-1.34
2023-01-28T23:42:16.993Z,-1.36
2023-01-28T23:44:17.416Z,-1.32
2023-01-28T23:46:16.925Z,-1.32
2023-01-28T23:48:16.102Z,-1.28
2023-01-28T23:50:14.800Z,-1.25
2023-01-28T23:52:13.196Z,-1.26
2023-01-28T23:54:11.453Z,-1.24
2023-01-28T23:56:11.550Z,-1.28
2023-01-28T23:58:09.672Z,-1.29
